• Join FlightAware (Why Join?)
  • Login
  • US Flag 
08:17AM EDT


 

Airport Tracker/Info


-or-


 

Live Flight TrackerFlight Track Log ✈ EIN136 ✈ 29-Apr-2013 ✈ KBOS - EIDW / DUB

Flight Track Log - Related Links

Times and Time Zones

All times are in EDT time to prevent confusion due to time zone crossing. See the EIN136 flight status page for this flight to view local times or setup timezone preferences in your user account.

Time Position Orientation Groundspeed Altitude Reporting Facility
EDT Latitude Longitude Course Direction KTS MPH feet Rate Location/Type
06:16PM 42.3500 -71.0167 180° South 155 178 900  Level KA90
06:17PM 42.3333 -71.0167 180° South 171 197 1,800 1,800 Climbing KA90
06:18PM 42.3167 -70.9333 105° East 264 304 3,800 2,700 Climbing KA90
06:19PM 42.3333 -70.8333 77° East 271 312 7,300 2,640 Climbing KA90
06:25PM 42.7760 -70.3780 77° East 399 459 22,900 2,460 Climbing FlightAware
06:26PM 42.8510 -70.3050 36° Northeast 412 474 24,500 2,100 Climbing FlightAware
06:26PM 42.9060 -70.2510 36° Northeast 421 484 25,700 1,860 Climbing FlightAware
06:27PM 42.9810 -70.1770 36° Northeast 421 484 27,200 1,680 Climbing FlightAware
06:28PM 43.0430 -70.1160 36° Northeast 433 498 28,300 1,620 Climbing FlightAware
06:28PM 43.1200 -70.0400 36° Northeast 443 510 29,400 1,500 Climbing FlightAware
06:29PM 43.1980 -69.9630 36° Northeast 451 519 30,500 1,440 Climbing FlightAware
06:30PM 43.2660 -69.8950 36° Northeast 457 526 31,500 1,260 Climbing FlightAware
06:31PM 43.3340 -69.8280 36° Northeast 466 536 32,200 1,080 Climbing FlightAware
06:31PM 43.4050 -69.7570 36° Northeast 472 543 33,000 1,320 Climbing FlightAware
06:32PM 43.4780 -69.6840 36° Northeast 463 533 34,100 1,440 Climbing FlightAware
06:33PM 43.5560 -69.6060 36° Northeast 459 528 35,200 1,260 Climbing FlightAware
06:33PM 43.6130 -69.5480 36° Northeast 458 527 35,800 960 Climbing FlightAware
06:34PM 43.6900 -69.4710 36° Northeast 460 529 36,500 780 Climbing FlightAware
06:35PM 43.7790 -69.3800 36° Northeast 474 545 37,000 300 Climbing FlightAware
06:35PM 43.8450 -69.3130 36° Northeast 478 550 37,000  Level FlightAware
06:36PM 43.9320 -69.2240 36° Northeast 478 550 37,000  Level FlightAware
06:37PM 44.0010 -69.1530 36° Northeast 475 547 37,000  Level FlightAware
06:38PM 44.0670 -69.0860 36° Northeast 474 545 37,000  Level FlightAware
06:38PM 44.1450 -69.0050 37° Northeast 466 536 37,000  Level FlightAware
06:39PM 44.2200 -68.9280 36° Northeast 473 544 37,000  Level FlightAware
06:40PM 44.3000 -68.8450 37° Northeast 473 544 37,000 420 Level FlightAware
06:40PM 44.3710 -68.7700 37° Northeast 470 541 37,600 660 Climbing FlightAware
06:41PM 44.4480 -68.6900 37° Northeast 478 550 38,000 660 Climbing FlightAware
06:42PM 44.5200 -68.6140 37° Northeast 475 547 38,600 720 Climbing FlightAware
06:42PM 44.5880 -68.5430 37° Northeast 467 537 39,000 300 Climbing FlightAware
06:43PM 44.6590 -68.4680 37° Northeast 467 537 39,000  Level FlightAware
06:44PM 44.7350 -68.3890 36° Northeast 468 539 39,000  Level FlightAware
06:45PM 44.8140 -68.3040 37° Northeast 467 537 39,000  Level FlightAware
06:45PM 44.8820 -68.2320 37° Northeast 467 537 39,000  Level FlightAware
06:46PM 44.9500 -68.1590 37° Northeast 468 539 39,000  Level FlightAware
06:47PM 45.0270 -68.0770 37° Northeast 467 537 39,000  Level FlightAware
06:47PM 45.0980 -68.0000 37° Northeast 465 535 39,000  Level FlightAware
06:48PM 45.1740 -67.9180 37° Northeast 463 533 39,000  Level FlightAware
06:49PM 45.2420 -67.8450 37° Northeast 460 529 39,000  Level FlightAware
06:49PM 45.3080 -67.7730 37° Northeast 460 529 39,000  Level FlightAware
06:50PM 45.3830 -67.6810 41° Northeast 461 531 39,000  Level FlightAware
06:51PM 45.4460 -67.5990 42° Northeast 460 529 39,000  Level FlightAware
06:52PM 45.5060 -67.5200 43° Northeast 462 532 39,000  Level FlightAware
06:52PM 45.5760 -67.4280 43° Northeast 463 533 39,000  Level FlightAware
06:54PM 45.7280 -67.2260 43° Northeast 462 532 39,000  Level FlightAware
06:55PM 45.8370 -67.0800 43° Northeast 464 534 39,000  Level FlightAware
06:56PM 45.8850 -67.0160 43° Northeast 463 533 39,000  Level FlightAware
06:56PM 45.9620 -66.9120 43° Northeast 460 529 39,000  Level FlightAware
06:58PM 46.0750 -66.7580 43° Northeast 452 520 39,000  Level FlightAware
06:59PM 46.1610 -66.6410 43° Northeast 454 522 39,000  Level FlightAware
06:59PM 46.2160 -66.5660 43° Northeast 462 532 39,000  Level FlightAware
07:00PM 46.2790 -66.4800 43° Northeast 463 533 39,000  Level FlightAware
07:01PM 46.3490 -66.3840 43° Northeast 463 533 39,000  Level FlightAware
07:01PM 46.4030 -66.3120 43° Northeast 463 533 39,000  Level FlightAware
07:02PM 46.4560 -66.2400 43° Northeast 463 533 39,000  Level FlightAware
07:03PM 46.5090 -66.1680 43° Northeast 463 533 39,000  Level FlightAware
07:04PM 46.5760 -66.0770 43° Northeast 463 533 39,000  Level FlightAware
07:04PM 46.6290 -66.0050 43° Northeast 463 533 39,000  Level FlightAware
07:05PM 46.6820 -65.9330 43° Northeast 463 533 39,000  Level FlightAware
07:06PM 46.7360 -65.8600 43° Northeast 463 533 39,000  Level FlightAware
07:06PM 46.7890 -65.7880 43° Northeast 463 533 39,000  Level FlightAware
07:07PM 46.8550 -65.6970 43° Northeast 463 533 39,000  Level FlightAware
07:08PM 46.9090 -65.6240 43° Northeast 463 533 39,000  Level FlightAware
07:08PM 46.9620 -65.5520 43° Northeast 463 533 39,000  Level FlightAware
07:09PM 47.0150 -65.4790 43° Northeast 463 533 39,000  Level FlightAware
07:10PM 47.0690 -65.4060 43° Northeast 463 533 39,000  Level FlightAware
07:10PM 47.2000 -65.1667 43° Northeast 460 529 39,000  Level Moncton Center
07:11PM 47.2833 -65.0333 47° Northeast 450 518 39,000  Level Moncton Center
07:12PM 47.3833 -64.8833 45° Northeast 450 518 39,000  Level Moncton Center
07:13PM 47.4667 -64.7667 43° Northeast 450 518 39,000  Level Moncton Center
07:14PM 47.5667 -64.6167 45° Northeast 450 518 39,000  Level Moncton Center
07:15PM 47.6500 -64.5000 43° Northeast 460 529 39,000  Level Moncton Center
07:16PM 47.7333 -64.3667 47° Northeast 460 529 39,000  Level Moncton Center
07:17PM 47.8333 -64.2167 45° Northeast 460 529 39,000  Level Moncton Center
07:18PM 47.9167 -64.1000 43° Northeast 460 529 39,000  Level Moncton Center
07:19PM 48.0167 -63.9500 45° Northeast 460 529 39,000  Level Moncton Center
07:20PM 48.1000 -63.8167 47° Northeast 470 541 39,000  Level Moncton Center
07:21PM 48.2000 -63.6667 45° Northeast 470 541 39,000  Level Moncton Center
07:22PM 48.2833 -63.5333 47° Northeast 470 541 39,000  Level Moncton Center
07:23PM 48.3833 -63.3833 45° Northeast 460 529 39,000  Level Moncton Center
07:24PM 48.4667 -63.2667 43° Northeast 460 529 39,000  Level Moncton Center
07:25PM 48.5667 -63.1000 48° Northeast 470 541 39,000  Level Moncton Center
07:26PM 48.6500 -62.9833 43° Northeast 470 541 39,000  Level Moncton Center
07:27PM 48.7500 -62.8167 48° Northeast 480 552 39,000  Level Moncton Center
07:28PM 48.8500 -62.6667 45° Northeast 470 541 39,000  Level Moncton Center
07:29PM 48.9167 -62.5333 53° Northeast 470 541 39,000  Level Moncton Center
07:30PM 49.0167 -62.4000 41° Northeast 450 518 39,000  Level Moncton Center
07:31PM 49.1000 -62.2500 50° Northeast 480 552 39,000  Level Moncton Center
07:32PM 49.1833 -62.1167 46° Northeast 470 541 39,000  Level Moncton Center
07:33PM 49.2833 -61.9667 44° Northeast 470 541 39,000  Level Moncton Center
07:34PM 49.3667 -61.8333 46° Northeast 460 529 39,000  Level Moncton Center
07:35PM 49.4667 -61.6667 47° Northeast 460 529 39,000  Level Moncton Center
07:36PM 49.5333 -61.5333 52° Northeast 470 541 39,000  Level Moncton Center
07:37PM 49.6333 -61.3667 47° Northeast 460 529 39,000  Level Moncton Center
07:38PM 49.7167 -61.2000 52° Northeast 460 529 39,000  Level Gander Center
07:39PM 49.8000 -61.0833 42° Northeast 460 529 39,000  Level Moncton Center
07:40PM 49.9000 -60.9333 44° Northeast 460 529 39,000  Level Moncton Center
07:41PM 49.9667 -60.7833 55° Northeast 460 529 39,000  Level Moncton Center
07:42PM 50.0667 -60.6333 44° Northeast 470 541 39,000  Level Moncton Center
07:43PM 50.1500 -60.4833 49° Northeast 460 529 39,000  Level Moncton Center
07:44PM 50.2333 -60.3333 49° Northeast 460 529 39,000  Level Moncton Center
07:45PM 50.3167 -60.1667 52° Northeast 460 529 39,000  Level Moncton Center
07:46PM 50.4000 -60.0333 46° Northeast 460 529 39,000  Level Moncton Center
07:47PM 50.5000 -59.8833 44° Northeast 470 541 39,000  Level Gander Center
07:48PM 50.5833 -59.7333 49° Northeast 460 529 39,000  Level Gander Center
07:49PM 50.6667 -59.5667 52° Northeast 460 529 39,000  Level Gander Center
07:50PM 50.7500 -59.4000 52° Northeast 460 529 39,000  Level Gander Center
07:51PM 50.8333 -59.2500 49° Northeast 460 529 39,000  Level Moncton Center
07:52PM 50.9167 -59.1167 45° Northeast 460 529 39,000  Level Moncton Center
07:53PM 50.9833 -58.9500 58° Northeast 460 529 39,000  Level Moncton Center
07:54PM 51.0667 -58.8000 48° Northeast 460 529 39,000  Level Moncton Center
07:55PM 51.1667 -58.6167 49° Northeast 460 529 39,000  Level Gander Center
07:56PM 51.2167 -58.4500 64° Northeast 470 541 39,000 120 Level Gander Center
07:57PM 51.3000 -58.2833 51° Northeast 470 541 39,300 300 Climbing Gander Center
07:58PM 51.3667 -58.1167 57° Northeast 470 541 39,700 300 Climbing Moncton Center
07:59PM 51.4667 -57.9500 46° Northeast 480 552 40,000 120 Climbing Moncton Center
08:00PM 51.5333 -57.7667 60° Northeast 480 552 40,000  Level Moncton Center
08:01PM 51.6000 -57.6000 57° Northeast 470 541 40,000  Level Moncton Center
08:02PM 51.6833 -57.4333 51° Northeast 470 541 40,000  Level Moncton Center
08:03PM 51.7500 -57.2500 60° Northeast 470 541 40,000  Level Moncton Center
08:04PM 51.8333 -57.0833 51° Northeast 470 541 40,000  Level Moncton Center
08:05PM 51.9000 -56.9000 59° Northeast 470 541 40,000  Level Moncton Center
08:06PM 51.9667 -56.7667 51° Northeast 470 541 40,000  Level Gander Center
08:06PM 51.9833 -56.7167 62° Northeast 470 541 40,000  Level Gander Center
08:07PM 52.0500 -56.5500 57° Northeast 470 541 40,000  Level Moncton Center
08:08PM 52.1333 -56.3667 53° Northeast 470 541 40,000  Level Moncton Center
08:09PM 52.2167 -56.2000 51° Northeast 470 541 40,000  Level Moncton Center
08:10PM 52.2833 -56.0167 59° Northeast 470 541 40,000  Level Moncton Center
08:11PM 52.3500 -55.8333 59° Northeast 470 541 40,000  Level Moncton Center
08:12PM 52.4167 -55.6667 57° Northeast 480 552 40,000  Level Moncton Center
08:13PM 52.4833 -55.5333 51° Northeast 480 552 40,000  Level Gander Center
08:13PM 52.5000 -55.4833 61° Northeast 480 552 40,000  Level Gander Center
08:14PM 52.5667 -55.3000 59° Northeast 470 541 40,000  Level Moncton Center
08:15PM 52.6333 -55.1167 59° Northeast 480 552 40,000  Level Moncton Center
08:16PM 52.7167 -54.9333 53° Northeast 470 541 40,000  Level Moncton Center
08:17PM 52.7833 -54.7500 59° Northeast 480 552 40,000  Level Moncton Center
08:18PM 52.8500 -54.6333 47° Northeast 480 552 40,000  Level Gander Center
08:18PM 52.8667 -54.5667 67° East 480 552 40,000  Level Gander Center
08:19PM 52.9333 -54.4000 56° Northeast 470 541 40,000  Level Gander Center
08:20PM 52.9667 -54.2833 65° Northeast 460 529 40,000  Level Gander Center
08:20PM 52.9833 -54.2500 50° Northeast 460 529 40,000  Level Gander Center
08:21PM 53.0500 -54.1000 53° Northeast 460 529 40,000  Level Gander Center
08:21PM 53.0667 -54.0333 67° East 460 529 40,000  Level Gander Center
08:22PM 53.1167 -53.8667 63° Northeast 470 541 40,000  Level Gander Center
08:23PM 53.1500 -53.6333 77° East 480 552 40,000  Level Gander Center
08:24PM 53.1833 -53.4333 74° East 480 552 40,000  Level Gander Center
08:25PM 53.2500 -53.2167 63° Northeast 480 552 40,000  Level Gander Center
08:26PM 53.3000 -53.0167 67° East 480 552 40,000  Level Gander Center
08:27PM 53.3333 -52.8167 74° East 480 552 40,000  Level Gander Center
08:28PM 53.3833 -52.6000 69° East 480 552 40,000  Level Gander Center
08:29PM 53.4333 -52.4000 67° East 480 552 40,000  Level Gander Center
08:30PM 53.4833 -52.1833 69° East 480 552 40,000  Level Gander Center
08:31PM 53.5167 -51.9500 76° East 480 552 40,000  Level Gander Center
08:32PM 53.5667 -51.7500 67° East 480 552 40,000  Level Gander Center
08:33PM 53.6167 -51.6000 61° Northeast 480 552 40,000  Level Gander Center
08:34PM 53.6667 -51.3833 69° East 480 552 40,000  Level Gander Center
08:34PM 53.6667 -51.3333 90° East 480 552 40,000  Level Gander Center
08:35PM 53.7167 -51.1167 69° East 480 552 40,000  Level Gander Center
08:36PM 53.7667 -50.9000 69° East 490 564 40,000  Level Gander Center
08:37PM 53.8167 -50.7000 67° East 490 564 40,000  Level Gander Center
08:38PM 53.8500 -50.4833 75° East 480 552 40,000  Level Gander Center
08:39PM 53.8833 -50.2500 76° East 480 552 40,000  Level Gander Center
08:40PM 53.9500 -50.0333 62° Northeast 490 564 40,000  Level Gander Center
08:41PM 53.9833 -49.8167 75° East 480 552 40,000  Level Gander Center
08:43PM 54.0592 -49.5205 66° East  Level FlightAware Approximate
08:50PM 54.4113 -48.0919 67° East  Level FlightAware Approximate
08:51PM 54.4602 -47.8858 68° East  Level FlightAware Approximate
08:52PM 54.5087 -47.6793 68° East  Level FlightAware Approximate
08:53PM 54.5569 -47.4723 68° East  Level FlightAware Approximate
08:54PM 54.6048 -47.2647 68° East  Level FlightAware Approximate
08:55PM 54.6522 -47.0567 68° East  Level FlightAware Approximate
08:56PM 54.6994 -46.8482 69° East  Level FlightAware Approximate
08:57PM 54.7461 -46.6392 69° East  Level FlightAware Approximate
08:58PM 54.7925 -46.4298 69° East  Level FlightAware Approximate
08:59PM 54.8386 -46.2198 69° East  Level FlightAware Approximate
09:00PM 54.8843 -46.0094 69° East  Level FlightAware Approximate
09:01PM 54.9296 -45.7985 69° East  Level FlightAware Approximate
09:02PM 54.9746 -45.5872 70° East  Level FlightAware Approximate
09:03PM 55.0192 -45.3753 70° East  Level FlightAware Approximate
09:04PM 55.0634 -45.1630 70° East  Level FlightAware Approximate
09:05PM 55.1072 -44.9502 70° East  Level FlightAware Approximate
09:06PM 55.1507 -44.7370 70° East  Level FlightAware Approximate
09:07PM 55.1938 -44.5233 70° East  Level FlightAware Approximate
09:08PM 55.2365 -44.3091 71° East  Level FlightAware Approximate
09:09PM 55.2789 -44.0945 71° East  Level FlightAware Approximate
09:10PM 55.3209 -43.8794 71° East  Level FlightAware Approximate
09:11PM 55.3625 -43.6638 71° East  Level FlightAware Approximate
09:12PM 55.4037 -43.4478 71° East  Level FlightAware Approximate
09:13PM 55.4445 -43.2314 72° East  Level FlightAware Approximate
09:14PM 55.4850 -43.0145 72° East  Level FlightAware Approximate
09:15PM 55.5251 -42.7972 72° East  Level FlightAware Approximate
09:16PM 55.5648 -42.5794 72° East  Level FlightAware Approximate
09:17PM 55.6041 -42.3612 72° East  Level FlightAware Approximate
09:18PM 55.6430 -42.1426 72° East  Level FlightAware Approximate
09:19PM 55.6815 -41.9235 73° East  Level FlightAware Approximate
09:20PM 55.7196 -41.7040 73° East  Level FlightAware Approximate
09:21PM 55.7574 -41.4841 73° East  Level FlightAware Approximate
09:22PM 55.7947 -41.2637 73° East  Level FlightAware Approximate
09:23PM 55.8317 -41.0429 73° East  Level FlightAware Approximate
09:24PM 55.8682 -40.8217 74° East  Level FlightAware Approximate
09:25PM 55.9044 -40.6001 74° East  Level FlightAware Approximate
09:26PM 55.9402 -40.3781 74° East  Level FlightAware Approximate
09:27PM 55.9755 -40.1557 74° East  Level FlightAware Approximate
09:28PM 56.0028 -39.9299 86° East  Level FlightAware Approximate
09:29PM 56.0118 -39.6990 86° East  Level FlightAware Approximate
09:30PM 56.0204 -39.4679 86° East  Level FlightAware Approximate
09:31PM 56.0286 -39.2368 86° East  Level FlightAware Approximate
09:32PM 56.0363 -39.0055 86° East  Level FlightAware Approximate
09:33PM 56.0436 -38.7741 87° East  Level FlightAware Approximate
09:34PM 56.0504 -38.5427 87° East  Level FlightAware Approximate
09:35PM 56.0569 -38.3112 87° East  Level FlightAware Approximate
09:36PM 56.0629 -38.0796 87° East  Level FlightAware Approximate
09:37PM 56.0684 -37.8479 87° East  Level FlightAware Approximate
09:38PM 56.0735 -37.6162 88° East  Level FlightAware Approximate
09:39PM 56.0782 -37.3844 88° East  Level FlightAware Approximate
09:40PM 56.0825 -37.1526 88° East  Level FlightAware Approximate
09:41PM 56.0863 -36.9207 88° East  Level FlightAware Approximate
09:42PM 56.0897 -36.6888 88° East  Level FlightAware Approximate
09:43PM 56.0926 -36.4568 89° East  Level FlightAware Approximate
09:44PM 56.0951 -36.2248 89° East  Level FlightAware Approximate
09:45PM 56.0972 -35.9928 89° East  Level FlightAware Approximate
09:46PM 56.0989 -35.7608 89° East  Level FlightAware Approximate
09:47PM 56.1001 -35.5287 89° East  Level FlightAware Approximate
09:48PM 56.1008 -35.2966 90° East  Level FlightAware Approximate
09:49PM 56.1012 -35.0645 90° East  Level FlightAware Approximate
09:50PM 56.1011 -34.8325 90° East  Level FlightAware Approximate
09:51PM 56.1005 -34.6004 90° East  Level FlightAware Approximate
09:52PM 56.0996 -34.3683 90° East  Level FlightAware Approximate
09:53PM 56.0982 -34.1362 91° East  Level FlightAware Approximate
09:54PM 56.0963 -33.9042 91° East  Level FlightAware Approximate
09:55PM 56.0941 -33.6722 91° East  Level FlightAware Approximate
09:56PM 56.0914 -33.4402 91° East  Level FlightAware Approximate
09:57PM 56.0882 -33.2083 91° East  Level FlightAware Approximate
09:58PM 56.0846 -32.9764 91° East  Level FlightAware Approximate
09:59PM 56.0806 -32.7445 92° East  Level FlightAware Approximate
10:00PM 56.0762 -32.5127 92° East  Level FlightAware Approximate
10:01PM 56.0713 -32.2809 92° East  Level FlightAware Approximate
10:02PM 56.0660 -32.0492 92° East  Level FlightAware Approximate
10:03PM 56.0602 -31.8176 92° East  Level FlightAware Approximate
10:04PM 56.0541 -31.5861 93° East  Level FlightAware Approximate
10:05PM 56.0475 -31.3546 93° East  Level FlightAware Approximate
10:06PM 56.0404 -31.1232 93° East  Level FlightAware Approximate
10:07PM 56.0329 -30.8919 93° East  Level FlightAware Approximate
10:08PM 56.0250 -30.6606 93° East  Level FlightAware Approximate
10:09PM 56.0167 -30.4295 94° East  Level FlightAware Approximate
10:10PM 56.0079 -30.1985 94° East  Level FlightAware Approximate
10:11PM 55.9981 -29.9677 96° East  Level FlightAware Approximate
10:12PM 55.9844 -29.7376 96° East  Level FlightAware Approximate
10:13PM 55.9702 -29.5076 96° East  Level FlightAware Approximate
10:14PM 55.9556 -29.2778 96° East  Level FlightAware Approximate
10:15PM 55.9406 -29.0482 97° East  Level FlightAware Approximate
10:16PM 55.9252 -28.8188 97° East  Level FlightAware Approximate
10:17PM 55.9093 -28.5895 97° East  Level FlightAware Approximate
10:18PM 55.8930 -28.3605 97° East  Level FlightAware Approximate
10:19PM 55.8763 -28.1316 97° East  Level FlightAware Approximate
10:20PM 55.8592 -27.9030 98° East  Level FlightAware Approximate
10:21PM 55.8416 -27.6745 98° East  Level FlightAware Approximate
10:22PM 55.8236 -27.4463 98° East  Level FlightAware Approximate
10:23PM 55.8052 -27.2183 98° East  Level FlightAware Approximate
10:24PM 55.7864 -26.9904 98° East  Level FlightAware Approximate
10:25PM 55.7671 -26.7628 98° East  Level FlightAware Approximate
10:26PM 55.7475 -26.5355 99° East  Level FlightAware Approximate
10:27PM 55.7274 -26.3084 99° East  Level FlightAware Approximate
10:28PM 55.7069 -26.0815 99° East  Level FlightAware Approximate
10:29PM 55.6860 -25.8548 99° East  Level FlightAware Approximate
10:30PM 55.6646 -25.6284 99° East  Level FlightAware Approximate
10:31PM 55.6434 -25.4021 99° East  Level FlightAware Approximate
10:32PM 55.6217 -25.1760 100° East  Level FlightAware Approximate
10:33PM 55.5995 -24.9502 100° East  Level FlightAware Approximate
10:34PM 55.5770 -24.7247 100° East  Level FlightAware Approximate
10:35PM 55.5541 -24.4994 100° East  Level FlightAware Approximate
10:36PM 55.5307 -24.2744 100° East  Level FlightAware Approximate
10:37PM 55.5069 -24.0496 100° East  Level FlightAware Approximate
10:38PM 55.4827 -23.8251 101° East  Level FlightAware Approximate
10:39PM 55.4581 -23.6009 101° East  Level FlightAware Approximate
10:40PM 55.4331 -23.3770 101° East  Level FlightAware Approximate
10:41PM 55.4077 -23.1534 101° East  Level FlightAware Approximate
10:42PM 55.3819 -22.9300 101° East  Level FlightAware Approximate
10:43PM 55.3556 -22.7070 102° East  Level FlightAware Approximate
10:44PM 55.3288 -22.4843 102° East  Level FlightAware Approximate
10:45PM 55.3017 -22.2619 102° East  Level FlightAware Approximate
10:46PM 55.2741 -22.0398 102° East  Level FlightAware Approximate
10:47PM 55.2461 -21.8181 102° East  Level FlightAware Approximate
10:48PM 55.2178 -21.5966 103° East  Level FlightAware Approximate
10:49PM 55.1890 -21.3754 103° East  Level FlightAware Approximate
10:50PM 55.1598 -21.1546 103° East  Level FlightAware Approximate
10:51PM 55.1302 -20.9341 103° East  Level FlightAware Approximate
10:52PM 55.1002 -20.7139 103° East  Level FlightAware Approximate
10:53PM 55.0699 -20.4941 103° East  Level FlightAware Approximate
10:54PM 55.0391 -20.2746 104° East  Level FlightAware Approximate
10:55PM 55.0079 -20.0554 104° East  Level FlightAware Approximate
10:56PM 54.9905 -19.8323 96° East  Level FlightAware Approximate
10:57PM 54.9773 -19.6079 96° East  Level FlightAware Approximate
10:58PM 54.9638 -19.3836 96° East  Level FlightAware Approximate
10:59PM 54.9498 -19.1595 96° East  Level FlightAware Approximate
11:00PM 54.9354 -18.9356 96° East  Level FlightAware Approximate
11:01PM 54.9207 -18.7118 96° East  Level FlightAware Approximate
11:02PM 54.9054 -18.4881 97° East  Level FlightAware Approximate
11:03PM 54.8898 -18.2647 97° East  Level FlightAware Approximate
11:04PM 54.8738 -18.0414 97° East  Level FlightAware Approximate
11:05PM 54.8574 -17.8183 97° East  Level FlightAware Approximate
11:06PM 54.8406 -17.5954 97° East  Level FlightAware Approximate
11:06PM 54.0010 -14.4150 98° East 518 596 40,000  Level FlightAware
11:07PM 54.8233 -17.3726 98° East  Level FlightAware Approximate
11:07PM 54.0000 -14.2550 91° East 517 595 40,000  Level FlightAware
11:08PM 54.0000 -14.0930 90° East 517 595 40,000  Level FlightAware
11:09PM 53.9990 -13.9090 90° East 517 595 40,000  Level FlightAware
11:09PM 53.9980 -13.7430 91° East 518 596 40,000  Level FlightAware
11:10PM 53.9970 -13.5770 91° East 518 596 40,000  Level FlightAware
11:11PM 53.9950 -13.3970 91° East 519 597 40,000  Level FlightAware
11:11PM 53.9940 -13.2560 91° East 518 596 40,000  Level FlightAware
11:12PM 53.9910 -13.0580 91° East 516 594 40,000  Level FlightAware
11:13PM 53.9890 -12.8930 91° East 515 593 40,000  Level FlightAware
11:13PM 53.9870 -12.7380 91° East 515 593 40,000  Level FlightAware
11:14PM 53.9840 -12.5500 91° East 516 594 40,000  Level FlightAware
11:15PM 53.9810 -12.3880 92° East 517 595 40,000  Level FlightAware
11:16PM 53.9780 -12.2130 92° East 518 596 40,000  Level FlightAware
11:16PM 53.9750 -12.0650 92° East 517 595 40,000  Level FlightAware
11:17PM 53.9710 -11.8870 92° East 515 593 40,000  Level FlightAware
11:18PM 53.9670 -11.7010 92° East 513 590 40,000  Level FlightAware
11:18PM 53.9630 -11.5430 92° East 513 590 40,000  Level FlightAware
11:19PM 53.9580 -11.3590 93° East 513 590 40,000  Level FlightAware
11:20PM 53.9540 -11.2010 92° East 514 592 40,000  Level FlightAware
11:20PM 53.9490 -11.0400 93° East 515 593 40,000  Level FlightAware
11:21PM 53.9440 -10.8770 93° East 515 593 40,000  Level FlightAware
11:22PM 53.9390 -10.6970 93° East 514 592 40,000  Level FlightAware
11:23PM 53.9330 -10.5140 93° East 515 593 40,000  Level FlightAware
11:23PM 53.9270 -10.3570 94° East 516 594 40,000  Level FlightAware
11:24PM 53.9200 -10.1720 94° East 519 597 40,000  Level FlightAware
11:25PM 53.9150 -10.0120 93° East 517 595 40,000  Level FlightAware
11:25PM 53.9080 -9.8540 94° East 515 593 40,000  Level FlightAware
11:26PM 53.9020 -9.6910 94° East 515 593 40,000  Level FlightAware
11:27PM 53.8940 -9.5110 94° East 517 595 40,000  Level FlightAware
11:27PM 53.8870 -9.3250 94° East 520 598 40,000 -660 Level FlightAware
11:28PM 53.8800 -9.1680 94° East 514 592 39,100 -1,680 Descending FlightAware
11:29PM 53.8730 -9.0270 95° East 512 589 37,900 -4,080 Descending FlightAware
11:29PM 53.8694 -8.9473 95° East 460 529 35,500 -5,340 Descending FlightAware UK
11:29PM 53.8659 -8.8746 95° East 458 527 34,700 540 Descending FlightAware UK
11:30PM 53.8640 -8.8280 95° East 514 592 35,800 -2,400 Climbing FlightAware
11:30PM 53.8606 -8.7550 95° East 458 527 33,500 -5,520 Descending FlightAware UK
11:30PM 53.8573 -8.6830 94° East 458 527 32,700 1,500 Descending FlightAware UK
11:30PM 53.8560 -8.6690 94° East 514 592 34,100 -2,520 Climbing FlightAware
11:31PM 53.8522 -8.5867 94° East 458 527 31,700 -2,100 Descending FlightAware UK
11:31PM 53.8490 -8.5280 95° East 507 583 32,900 -1,380 Climbing FlightAware
11:31PM 53.8484 -8.5148 95° East 452 520 31,300 -6,960 Descending FlightAware UK
11:31PM 53.8447 -8.4426 95° East 454 522 30,700 -2,040 Descending FlightAware UK
11:31PM 53.8410 -8.3728 95° East 446 513 30,100 1,140 Descending FlightAware UK
11:32PM 53.8390 -8.3350 95° East 490 564 31,300 -1,800 Climbing FlightAware
11:32PM 53.8353 -8.2604 95° East 440 506 29,200 -4,680 Descending FlightAware UK
11:32PM 53.8318 -8.1937 95° East 432 497 28,600 2,340 Descending FlightAware UK
11:32PM 53.8310 -8.1820 95° East 477 549 30,100 -1,800 Climbing FlightAware
11:33PM 53.8270 -8.1046 95° East 428 493 27,900 -4,560 Descending FlightAware UK
11:33PM 53.8233 -8.0389 95° East 418 481 27,300 1,800 Descending FlightAware UK
11:33PM 53.8220 -8.0190 95° East 465 535 28,700 -1,800 Climbing FlightAware
11:33PM 53.8185 -7.9517 95° East 414 476 26,600 -4,620 Descending FlightAware UK
11:34PM 53.8149 -7.8878 95° East 410 472 26,100 2,460 Descending FlightAware UK
11:34PM 53.8140 -7.8770 95° East 454 522 27,600 -2,040 Climbing FlightAware
11:34PM 53.8102 -7.8036 95° East 406 467 25,300 -4,680 Descending FlightAware UK
11:34PM 53.8065 -7.7410 96° East 400 460 24,800 1,980 Descending FlightAware UK
11:34PM 53.8050 -7.7180 96° East 441 507 26,200 -1,800 Climbing FlightAware
11:35PM 53.8017 -7.6591 96° East 396 456 24,100 -4,740 Descending FlightAware UK
11:35PM 53.7982 -7.5982 95° East 392 451 23,600 2,160 Descending FlightAware UK
11:35PM 53.7980 -7.5840 95° East 432 497 25,000 -1,800 Climbing FlightAware
11:35PM 53.7935 -7.5180 95° East 388 447 22,900 -4,800 Descending FlightAware UK
11:36PM 53.7899 -7.4585 96° East 386 444 22,200 3,000 Descending FlightAware UK
11:36PM 53.7910 -7.4660 96° East 424 488 23,800 -4,380 Climbing FlightAware
11:36PM 53.7826 -7.4004 96° East 398 458 20,900 -4,200 Descending FlightAware UK
11:36PM 53.7820 -7.4010 96° East 441 507 22,400 2,820 Climbing FlightAware
11:36PM 53.7670 -7.3570 96° East 442 509 21,700 -9,000 Descending FlightAware
11:36PM 53.7621 -7.3478 96° East 402 463 20,000 -8,220 Descending FlightAware UK
11:37PM 53.7342 -7.3082 96° East 398 458 19,100 -3,720 Descending FlightAware UK
11:37PM 53.7066 -7.2713 142° Southeast 390 449 17,800 240 Descending FlightAware UK
11:37PM 53.7050 -7.2680 142° Southeast 420 483 19,200 -5,040 Climbing FlightAware
11:37PM 53.6785 -7.2354 142° Southeast 386 444 16,300 -7,800 Descending FlightAware UK
11:38PM 53.6504 -7.1992 143° Southeast 376 433 14,800 -1,440 Descending FlightAware UK
11:38PM 53.6360 -7.1810 143° Southeast 404 465 15,600 -3,840 Climbing FlightAware
11:38PM 53.6057 -7.1429 143° Southeast 366 421 12,900 -6,360 Descending FlightAware UK
11:38PM 53.5810 -7.1131 144° Southeast 356 410 11,700 540 Descending FlightAware UK
11:38PM 53.5800 -7.1110 144° Southeast 380 437 13,100 -5,040 Climbing FlightAware
11:39PM 53.5557 -7.0820 144° Southeast 354 407 10,200 -7,680 Descending FlightAware UK
11:39PM 53.5295 -7.0488 143° Southeast 1 1 8,900 240 Descending FlightAware UK
11:39PM 53.5220 -7.0390 143° Southeast 370 426 10,300 -1,800 Climbing FlightAware
11:39PM 53.4964 -7.0079 143° Southeast 344 396 8,200 -1,440 Descending FlightAware UK
11:40PM 53.4820 -6.9890 143° Southeast 348 400 9,600 2,760 Climbing FlightAware
11:40PM 53.4670 -6.9620 143° Southeast 337 388 9,500 -6,000 Descending FlightAware
11:40PM 53.4629 -6.9544 143° Southeast 316 364 7,900 -5,700 Descending FlightAware UK
11:40PM 53.4455 -6.9202 143° Southeast 302 348 7,700 3,360 Descending FlightAware UK
11:40PM 53.4420 -6.9120 143° Southeast 317 365 9,200 -480 Climbing FlightAware
11:41PM 53.4226 -6.8746 143° Southeast 286 329 7,500 -840 Descending FlightAware UK
11:41PM 53.4140 -6.8570 143° Southeast 300 345 8,800 -1,440 Climbing FlightAware
11:41PM 53.3963 -6.8216 143° Southeast 278 320 6,800 -1,440 Descending FlightAware UK
11:41PM 53.3930 -6.8140 143° Southeast 298 343 8,200 -1,500 Climbing FlightAware
11:41PM 53.3752 -6.7799 143° Southeast 278 320 6,200 -1,200 Descending FlightAware UK
11:42PM 53.3660 -6.7620 143° Southeast 294 338 7,600 -1,200 Climbing FlightAware
11:42PM 53.3492 -6.7278 143° Southeast 1 1 5,600 -1,200 Descending FlightAware UK
11:42PM 53.3430 -6.7090 143° Southeast 286 329 7,000 2,220 Climbing FlightAware
11:42PM 53.3330 -6.6790 119° Southeast 286 329 6,600 -4,140 Descending FlightAware
11:43PM 53.3171 -6.6376 119° Southeast 1 1 4,600 -1,200 Descending FlightAware UK
11:43PM 53.3160 -6.6330 119° Southeast 286 329 6,100 -960 Climbing FlightAware
11:43PM 53.3004 -6.5910 119° Southeast 1 1 4,200 -1,020 Descending FlightAware UK
11:43PM 53.2950 -6.5760 119° Southeast 286 329 5,600 -1,080 Climbing FlightAware
11:44PM 53.2806 -6.5338 119° Southeast 1 1 3,700 -960 Descending FlightAware UK
11:44PM 53.2800 -6.5250 119° Southeast 282 325 5,200 -540 Climbing FlightAware
11:44PM 53.2702 -6.4847 119° Southeast 1 1 3,500 -600 Descending FlightAware UK
11:44PM 53.2660 -6.4660 119° Southeast 270 311 4,900 -840 Climbing FlightAware
11:45PM 53.2562 -6.4286 119° Southeast 1 1 3,100 -480 Descending FlightAware UK
11:45PM 53.2550 -6.4210 119° Southeast 257 296 4,700  Climbing FlightAware
11:45PM 53.2452 -6.3837 119° Southeast 1 1 3,100  Descending FlightAware UK
11:45PM 53.2410 -6.3680 119° Southeast 246 283 4,700  Climbing FlightAware
11:45PM 53.2320 -6.3323 119° Southeast 1 1 3,100 -600 Descending FlightAware UK
11:46PM 53.2280 -6.3160 119° Southeast 238 274 4,400 1,380 Climbing FlightAware
11:46PM 53.2190 -6.2710 108° East 232 267 4,000 -780 Descending FlightAware
11:47PM 53.2140 -6.2200 99° East 213 245 3,700 -360 Descending FlightAware
11:47PM 53.2100 -6.1850 101° East 197 227 3,700 -600 Level FlightAware
11:47PM 53.2070 -6.1480 98° East 193 222 3,200 -1,080 Descending FlightAware
11:48PM 53.2150 -6.1250 60° Northeast 176 203 2,900 -900 Descending FlightAware
11:48PM 53.2260 -6.1190 18° North 167 192 2,700 -420 Descending FlightAware
11:48PM 53.2370 -6.1210 354° North 165 190 2,700  Level FlightAware
11:49PM 53.2560 -6.1310 343° North 165 190 2,700  Level FlightAware
11:49PM 53.2770 -6.1460 337° Northwest 167 192 2,700 -240 Level FlightAware
11:50PM 53.2950 -6.1590 337° Northwest 166 191 2,500 -660 Descending FlightAware
11:50PM 53.3160 -6.1750 336° Northwest 162 186 2,100 -840 Descending FlightAware
11:51PM 53.3360 -6.1900 336° Northwest 148 170 1,700 -780 Descending FlightAware
11:51PM 53.3500 -6.2000 337° Northwest 132 152 1,400 -660 Descending FlightAware
11:51PM 53.3650 -6.2100 338° Northwest 115 132 1,100 -660 Descending FlightAware
11:52PM 53.3790 -6.2200 337° Northwest 117 135 800 -660 Descending FlightAware
11:52PM 53.3930 -6.2300 337° Northwest 120 138 500 -600 Descending FlightAware
11:53PM 53.4080 -6.2410 336° Northwest 118 136 200 -420 Descending FlightAware
11:53PM 53.4220 -6.2510 337° Northwest 119 137 100 -240 Descending FlightAware
11:56PM 53.4167 -6.2667 102° East  Level FlightAware Approximate
11:57PM 53.4213 -6.2701 102° East  Level Estimated
11:58PM 53.4167 -6.2667 102° East  Level FlightAware Approximate
11:59PM 53.4213 -6.2701 102° East  Level Estimated
12:00AM 53.4167 -6.2667 102° East  Level FlightAware Approximate
12:01AM 53.4213 -6.2701 102° East  Level Estimated
12:02AM 53.4167 -6.2667 102° East  Level FlightAware Approximate